METAR Data
IDs: Format: Raw Decoded Include TAF

Data at: 2345 UTC 25 Oct 2021

PAZK 252256Z AUTO VRB03KT 10SM FEW010 OVC018 M01/M03 A2900 RMK AO2 SLP869 T10061028 FZRANO
PAZK 252156Z AUTO 13003KT 10SM FEW008 BKN018 M01/M03 A2901 RMK AO2 SLP872 T10111033 FZRANO
PAZK 252126Z AUTO 09003KT 10SM FEW006 M03/M04 A2901 RMK AO2 FZRANO
PAZK 252105Z AUTO 03004KT 10SM BKN006 M03/M05 A2901 RMK AO2 FZRANO
PAZK 252056Z AUTO 02005KT 10SM SCT006 BKN021 M03/M04 A2901 RMK AO2 SLP874 T10331044 58003 FZRANO
PAZK 252029Z AUTO 02005KT 10SM SCT005 BKN023 M04/M04 A2901 RMK AO2 FZRANO
PAZK 251956Z AUTO 03004KT 10SM BKN005 M05/M06 A2902 RMK AO2 SLP881 T10501061 FZRANO
PAZK 251856Z AUTO 02005KT 10SM OVC005 M07/M07 A2902 RMK AO2 SLP883 T10671072 FZRANO
PAZK 251845Z AUTO 03006KT 3SM BR BKN005 M07/M08 A2902 RMK AO2 FZRANO
PAZK 251835Z AUTO 03005KT 10SM SCT005 M08/M09 A2902 RMK AO2 FZRANO
PAZK 251756Z AUTO 36006KT 10SM CLR M07/M08 A2902 RMK AO2 SLP883 T10671078 11056 21072 58010 FZRANO
PAZK 251749Z AUTO 36006KT 10SM FEW003 M07/M08 A2903 RMK AO2 FZRANO
PAZK 251656Z AUTO 02005KT 10SM OVC110 M06/M07 A2903 RMK AO2 SLP887 T10611072 FZRANO
PAZK 251556Z AUTO 02004KT 10SM FEW001 OVC100 M07/M08 A2904 RMK AO2 SLP890 T10671078 FZRANO
PAZK 251541Z AUTO 05004KT 10SM FEW001 OVC100 M07/M08 A2905 RMK AO2 FZRANO
PAZK 251456Z AUTO 36005KT 10SM BKN100 M07/M08 A2905 RMK AO2 SLP890 T10721083 56015 FZRANO
PAZK 251356Z AUTO 03003KT 10SM BKN080 OVC095 M06/M07 A2907 RMK AO2 SLP894 T10611072 FZRANO
PAZK 251256Z AUTO 01005KT 10SM OVC100 M06/M07 A2909 RMK AO2 SLP895 T10561067 FZRANO
PAZK 251156Z AUTO 01006KT 10SM OVC100 M06/M07 A2910 RMK AO2 SLP900 T10561067 11050 21067 58016 FZRANO
PAZK 251056Z AUTO 01006KT 10SM SCT007 OVC100 M07/M07 A2912 RMK AO2 SLP908 T10671072 FZRANO
PAZK 251040Z AUTO 02006KT 9SM BKN007 M07/M08 A2913 RMK AO2 FZRANO
PAZK 251010Z AUTO 01005KT 10SM SCT005 M06/M07 A2914 RMK AO2 FZRANO
PAZK 250956Z AUTO 36006KT 10SM BKN005 M06/M07 A2914 RMK AO2 SLP914 T10611072 FZRANO
PAZK 250936Z AUTO 01005KT 10SM BKN005 M06/M07 A2915 RMK AO2 FZRANO
PAZK 250904Z AUTO 36006KT 10SM OVC003 M06/M07 A2915 RMK AO2 FZRANO
PAZK 250856Z AUTO 36006KT 10SM OVC001 M05/M06 A2916 RMK AO2 SLP918 T10501061 56016 FZRANO
PAZK 250836Z AUTO 01008KT 8SM OVC001 M05/M06 A2916 RMK AO2 FZRANO
PAZK 250810Z AUTO 01007KT 2SM BR BKN001 M06/M07 A2917 RMK AO2 VIS 3/4V5 FZRANO
PAZK 250807Z AUTO 02006KT 1SM BR BKN001 M06/M07 A2917 RMK AO2 FZRANO
PAZK 250759Z AUTO 01006KT 1 1/2SM BR SCT001 M07/M07 A2917 RMK AO2 FZRANO
PAZK 250756Z AUTO 01006KT 5SM BR FEW001 M06/M07 A2917 RMK AO2 SLP927 T10611072 400221067 FZRANO
PAZK 250656Z AUTO 36004KT 10SM CLR M06/M07 A2919 RMK AO2 SLP933 T10611072 FZRANO
PAZK 250556Z AUTO 02006KT 10SM CLR M06/M07 A2921 RMK AO2 SLP942 T10561072 10017 21061 58015 FZRANO
PAZK 250456Z AUTO 35005KT 10SM CLR M06/M08 A2922 RMK AO2 SLP951 T10561078 FZRANO
PAZK 250356Z AUTO 33004KT 10SM CLR M04/M07 A2924 RMK AO2 SLP951 T10441067 FZRANO
PAZK 250256Z AUTO 25003KT 10SM CLR M02/M06 A2926 RMK AO2 SLP956 T10221061 58014 FZRANO
PAZK 250156Z AUTO 00000KT 10SM CLR M02/M06 A2927 RMK AO2 SLP962 T10171056 FZRANO
PAZK 250056Z AUTO 20005KT 10SM CLR 01/M06 A2929 RMK AO2 SLP963 T00061056 FZRANO
PAZK 242356Z AUTO 15003KT 10SM SCT035 02/M04 A2930 RMK AO2 SLP967 60000 T00171044 10022 21022 58009 FZRANO
PAZK 242256Z AUTO 12003KT 10SM CLR 02/M05 A2932 RMK AO2 SLP972 T00171050 FZRANO
PAZK 242156Z AUTO 16003KT 10SM CLR 02/M04 A2932 RMK AO2 SLP975 T00171039 FZRANO
PAZK 242056Z AUTO 13003KT 10SM CLR 01/M04 A2933 RMK AO2 SLP977 60000 T00111039 58003 FZRANO
PAZK 242008Z AUTO 22003KT 10SM SCT005 01/M02 A2933 RMK AO2 FZRANO
PAZK 241956Z AUTO 22005KT 9SM BKN003 01/M01 A2934 RMK AO2 CIG 001V007 SLP979 T00061011 FZRANO
PAZK 241934Z AUTO 23004KT 3SM BR OVC003 00/M01 A2934 RMK AO2 FZRANO
PAZK 241926Z AUTO 23003KT 1 1/4SM BR OVC003 00/M01 A2934 RMK AO2 VIS 3/4V5 FZRANO
PAZK 241918Z AUTO 24004KT 1 3/4SM BR OVC001 00/M01 A2934 RMK AO2 VIS 3/4V5 FZRANO
PAZK 241915Z AUTO 23004KT 3SM BR OVC001 M01/M01 A2934 RMK AO2 FZRANO
PAZK 241900Z AUTO 22004KT 1 1/4SM BR OVC001 M01/M01 A2934 RMK AO2 FZRANO
PAZK 241856Z AUTO 22005KT 3/4SM BR OVC001 M01/M02 A2934 RMK AO2 SNE04 SLP983 P0000 T10111017 FZRANO
PAZK 241824Z AUTO 22006KT 1/4SM FZFG BKN001 M02/M02 A2934 RMK AO2 SNE04 CIG 001V004 P0000 FZRANO
PAZK 241816Z AUTO 22006KT 1/2SM FZFG BKN003 M02/M02 A2934 RMK AO2 SNE04 CIG 001V004 P0000 FZRANO
PAZK 241812Z AUTO 22005KT 3/4SM BR BKN001 M02/M02 A2934 RMK AO2 SNE04 CIG 001V004 P0000 FZRANO
PAZK 241808Z AUTO 21005KT 1 3/4SM BR BKN001 M02/M02 A2934 RMK AO2 SNE04 P0000 FZRANO
PAZK 241800Z AUTO 21004KT 4SM -SN BR BKN001 M02/M02 A2934 RMK AO2 P0000 FZRANO
PAZK 241757Z AUTO 22004KT 1 1/4SM -SN BR BKN001 M02/M03 A2934 RMK AO2 P0000 FZRANO
PAZK 241755Z AUTO 22004KT 3/4SM -SN BR BKN001 M02/M03 A2934 RMK AO2 SNB54 SLP983 P0000 60000 T10221028 11022 21044 50001 FZRANO
PAZK 241754Z AUTO 22004KT 3/4SM -SN BR OVC001 M02/M03 A2934 RMK AO2 SNB54 P0000 FZRANO
PAZK 241704Z AUTO 25006KT 1/4SM FZFG BKN001 BKN120 M04/M04 A2935 RMK AO2 FZRANO
PAZK 241658Z AUTO 25006KT 1/2SM FZFG FEW001 BKN120 M04/M05 A2935 RMK AO2 FZRANO
PAZK 241656Z AUTO 25005KT 1SM BR FEW001 SCT120 M04/M05 A2935 RMK AO2 SLP988 T10441050 FZRANO
PAZK 241623Z AUTO 23005KT 10SM SCT001 BKN048 BKN120 M03/M04 A2935 RMK AO2 FZRANO
PAZK 241556Z AUTO 20004KT 10SM OVC048 M03/M03 A2935 RMK AO2 SLP988 T10281033 FZRANO
PAZK 241456Z AUTO 25006KT 10SM OVC046 M03/M04 A2934 RMK AO2 SLP984 T10331039 53010 FZRANO
PAZK 241356Z AUTO 18003KT 10SM FEW090 OVC110 M04/M04 A2932 RMK AO2 SLP979 T10391044 FZRANO
PAZK 241256Z AUTO 22004KT 10SM OVC048 M04/M04 A2931 RMK AO2 SLP975 T10391044 FZRANO
PAZK 241156Z AUTO 24004KT 9SM SCT046 BKN110 M04/M05 A2930 RMK AO2 SLP972 T10441050 11028 21050 53018 FZRANO